Terminal Aerodrome Forecast
Issued by NWS

Home | Current Version | Previous Version | Text Only | Print | Product List | Glossary On
Versions: 1 2 3 4 5 6 7 8 9 10 11 12 13 14 15 16 17 18 19 20
000
FTUS43 KDVN 102336
TAFCID
TAF
KCID 102336Z 1100/1124 12009KT P6SM -SHSN BKN015 OVC040
     FM110200 12009KT 1 1/2SM -SN BR OVC015
      TEMPO 1102/1106 1/2SM SN FG OVC009
     FM111200 14010KT 5SM -SHSN BR OVC015
     FM111900 19008KT 3SM BR OVC008=

USA.gov is the U.S. government's official web portal to all federal, state and local government web resources and services.